Time;durP1;ratioP1;P1;durP2;ratioP2;P2;SDS_P1;SDS_P2;PMS_P1;PMS_P2;Temp;Humidity;BMP_temperature;BMP_pressure;BME280_temperature;BME280_humidity;BME280_pressure;Samples;Min_cycle;Max_cycle;Signal;HPM_P1;HPM_P2
2023/08/04 00:00:42;;;;;;;9.73;2.20;;;16.20;99.90;;;;;;5050044;28;20048;-86
2023/08/04 00:03:09;;;;;;;9.38;2.45;;;16.10;99.90;;;;;;5017744;28;20041;-86
2023/08/04 00:05:35;;;;;;;10.35;2.22;;;16.10;99.90;;;;;;5050428;28;20045;-86
2023/08/04 00:08:02;;;;;;;7.82;2.30;;;16.20;99.90;;;;;;5017196;28;20045;-86
2023/08/04 00:10:29;;;;;;;8.38;2.40;;;16.10;99.90;;;;;;5017625;28;20053;-86
2023/08/04 00:12:56;;;;;;;6.57;2.00;;;16.10;99.90;;;;;;5016963;28;20049;-86
2023/08/04 00:15:22;;;;;;;9.23;2.08;;;16.10;99.90;;;;;;5017539;28;20568;-86
2023/08/04 00:17:49;;;;;;;5.90;1.92;;;16.10;99.90;;;;;;5017111;28;20049;-86
2023/08/04 00:20:16;;;;;;;9.20;2.08;;;16.10;99.90;;;;;;5017423;28;20040;-86
2023/08/04 00:22:42;;;;;;;6.10;2.00;;;16.10;99.90;;;;;;5017310;28;20057;-86
2023/08/04 00:25:09;;;;;;;8.85;2.20;;;16.10;99.90;;;;;;5033508;28;20041;-86
2023/08/04 00:27:36;;;;;;;5.93;2.05;;;16.10;99.90;;;;;;5017688;28;20794;-87
2023/08/04 00:30:03;;;;;;;6.97;2.08;;;16.00;99.90;;;;;;5017466;28;20041;-87
2023/08/04 00:32:30;;;;;;;13.43;2.40;;;16.10;99.90;;;;;;5017765;28;20132;-87
2023/08/04 00:34:56;;;;;;;9.13;2.20;;;16.00;99.90;;;;;;5017040;28;20037;-87
2023/08/04 00:37:23;;;;;;;6.50;1.98;;;16.10;99.90;;;;;;5017324;28;20033;-86
2023/08/04 00:39:50;;;;;;;7.15;2.28;;;16.00;99.90;;;;;;5017444;28;20037;-86
2023/08/04 00:42:18;;;;;;;11.80;2.10;;;16.00;99.90;;;;;;5017197;28;20046;-86
2023/08/04 00:44:48;;;;;;;6.60;2.10;;;16.00;99.90;;;;;;5033532;28;20100;-84
2023/08/04 00:47:14;;;;;;;6.60;2.17;;;15.90;99.90;;;;;;5017674;28;20076;-86
2023/08/04 00:49:43;;;;;;;10.10;2.47;;;16.00;99.90;;;;;;5033191;28;20042;-86
2023/08/04 00:52:10;;;;;;;10.02;2.10;;;16.00;99.90;;;;;;5016997;28;20049;-86
2023/08/04 00:54:38;;;;;;;7.68;2.03;;;15.90;99.90;;;;;;5017346;28;20038;-86
2023/08/04 00:57:05;;;;;;;8.20;2.50;;;16.00;99.90;;;;;;5033204;28;20413;-86
2023/08/04 00:59:32;;;;;;;6.00;1.95;;;15.90;99.90;;;;;;5017124;28;20509;-87
2023/08/04 01:01:58;;;;;;;10.68;1.90;;;15.90;99.90;;;;;;5049187;28;20084;-86
2023/08/04 01:04:26;;;;;;;5.80;1.80;;;15.90;99.90;;;;;;5033177;28;20133;-86
2023/08/04 01:07:11;;;;;;;6.88;1.92;;;15.90;99.90;;;;;;5020482;28;20045;-86
2023/08/04 01:09:38;;;;;;;6.95;1.90;;;15.90;99.90;;;;;;5036939;28;20041;-86
2023/08/04 01:12:08;;;;;;;9.75;2.17;;;15.90;99.90;;;;;;5053062;28;20523;-87
2023/08/04 01:14:35;;;;;;;9.80;2.38;;;15.90;99.90;;;;;;5069225;28;20049;-87
2023/08/04 01:17:20;;;;;;;9.55;2.00;;;15.80;99.90;;;;;;5020417;28;20129;-86
2023/08/04 01:19:47;;;;;;;8.97;2.43;;;15.80;99.90;;;;;;5036903;28;20048;-86
2023/08/04 01:22:14;;;;;;;7.35;2.15;;;15.80;99.90;;;;;;5020544;28;20476;-87
2023/08/04 01:24:41;;;;;;;6.43;2.00;;;15.70;99.90;;;;;;5020678;28;20045;-86
2023/08/04 01:27:12;;;;;;;6.70;1.85;;;15.80;99.90;;;;;;5020121;28;20450;-85
2023/08/04 01:29:42;;;;;;;5.38;1.98;;;15.70;99.90;;;;;;5036972;28;20045;-86
2023/08/04 01:32:09;;;;;;;11.13;1.80;;;15.70;99.90;;;;;;5036291;28;20045;-86
2023/08/04 01:34:36;;;;;;;7.72;2.20;;;15.60;99.90;;;;;;5020640;28;20037;-87
2023/08/04 01:37:03;;;;;;;4.78;1.90;;;15.60;99.90;;;;;;5036398;28;20472;-86
2023/08/04 01:39:30;;;;;;;7.53;1.92;;;15.50;99.90;;;;;;5020139;28;20413;-86
2023/08/04 01:41:56;;;;;;;5.18;1.80;;;15.50;99.90;;;;;;5019893;28;20056;-87
2023/08/04 01:44:23;;;;;;;13.02;2.15;;;15.40;99.90;;;;;;5020260;28;20081;-86
2023/08/04 01:46:50;;;;;;;6.32;1.95;;;15.40;99.90;;;;;;5036531;28;20037;-87
2023/08/04 01:49:16;;;;;;;6.00;1.92;;;15.40;99.90;;;;;;5020071;28;20135;-87
2023/08/04 01:51:43;;;;;;;7.15;1.85;;;15.30;99.90;;;;;;5019969;28;20045;-86
2023/08/04 01:54:10;;;;;;;5.95;2.00;;;15.30;99.90;;;;;;5019541;28;20049;-86
2023/08/04 01:56:36;;;;;;;7.40;1.92;;;15.30;99.90;;;;;;5019718;28;20045;-86
2023/08/04 01:59:03;;;;;;;7.55;2.03;;;15.20;99.90;;;;;;5036080;28;20124;-86
2023/08/04 02:01:30;;;;;;;6.55;2.35;;;15.20;99.90;;;;;;5020073;28;20036;-86
2023/08/04 02:03:56;;;;;;;8.45;2.05;;;15.20;99.90;;;;;;5019714;28;20149;-86
2023/08/04 02:06:23;;;;;;;4.68;1.83;;;15.20;99.90;;;;;;5019937;28;20042;-87
2023/08/04 02:08:50;;;;;;;7.63;2.28;;;15.20;99.90;;;;;;5019717;28;20473;-86
2023/08/04 02:11:17;;;;;;;9.77;2.10;;;15.20;99.90;;;;;;5035891;28;20033;-86
2023/08/04 02:13:43;;;;;;;6.68;1.92;;;15.20;99.90;;;;;;5019553;28;20048;-87
2023/08/04 02:16:10;;;;;;;9.65;1.90;;;15.20;99.90;;;;;;5018339;28;20056;-86
2023/08/04 02:18:37;;;;;;;4.50;1.55;;;15.10;99.90;;;;;;5018998;28;20072;-86
2023/08/04 02:21:03;;;;;;;5.80;2.10;;;15.20;99.90;;;;;;5035481;28;20041;-86
2023/08/04 02:23:31;;;;;;;6.40;2.03;;;15.20;99.90;;;;;;5019633;28;20052;-86
2023/08/04 02:25:58;;;;;;;4.47;1.60;;;15.20;99.90;;;;;;5019285;28;20049;-86
2023/08/04 02:28:25;;;;;;;6.57;1.92;;;15.20;99.90;;;;;;5035685;28;20040;-86
2023/08/04 02:30:52;;;;;;;4.88;1.70;;;15.20;99.90;;;;;;5019820;28;20052;-86
2023/08/04 02:33:18;;;;;;;4.70;1.83;;;15.20;99.90;;;;;;5018968;28;20052;-86
2023/08/04 02:35:48;;;;;;;10.18;2.00;;;15.20;99.90;;;;;;5019468;28;20064;-86
2023/08/04 02:38:14;;;;;;;10.32;2.13;;;15.20;99.90;;;;;;5019282;28;20044;-86
2023/08/04 02:40:41;;;;;;;4.50;1.73;;;15.20;99.90;;;;;;5018841;28;20876;-86
2023/08/04 02:43:08;;;;;;;5.63;1.67;;;15.20;99.90;;;;;;5019014;28;20033;-86
2023/08/04 02:45:34;;;;;;;5.60;1.58;;;15.20;99.90;;;;;;5019004;28;20150;-87
2023/08/04 02:48:01;;;;;;;6.68;2.05;;;15.20;99.90;;;;;;5018852;28;20150;-86
2023/08/04 02:50:28;;;;;;;3.95;2.17;;;15.20;99.90;;;;;;5019216;28;20084;-86
2023/08/04 02:52:55;;;;;;;4.95;1.88;;;15.20;99.90;;;;;;5018684;28;20135;-86
2023/08/04 02:55:21;;;;;;;4.80;1.30;;;15.20;99.90;;;;;;5018560;28;20042;-85
2023/08/04 02:57:48;;;;;;;8.10;2.00;;;15.10;99.90;;;;;;5035140;28;20060;-86
2023/08/04 03:00:15;;;;;;;8.02;1.60;;;15.10;99.90;;;;;;5018549;28;20047;-86
2023/08/04 03:02:41;;;;;;;7.78;2.33;;;15.10;99.90;;;;;;5018334;28;20052;-87
2023/08/04 03:05:08;;;;;;;7.47;1.92;;;15.10;99.90;;;;;;5018222;28;20037;-86
2023/08/04 03:07:35;;;;;;;8.80;1.70;;;15.10;99.90;;;;;;5018602;28;20041;-86
2023/08/04 03:10:01;;;;;;;3.83;1.60;;;15.20;99.90;;;;;;5018656;28;20050;-86
2023/08/04 03:12:28;;;;;;;9.60;1.50;;;15.20;99.90;;;;;;5034554;28;20045;-86
2023/08/04 03:14:55;;;;;;;6.07;1.45;;;15.30;99.90;;;;;;5018757;28;20057;-86
2023/08/04 03:17:21;;;;;;;5.28;1.88;;;15.30;99.90;;;;;;5034273;28;20056;-86
2023/08/04 03:19:48;;;;;;;5.22;1.75;;;15.30;99.90;;;;;;5018430;28;20091;-86
2023/08/04 03:22:15;;;;;;;5.68;1.50;;;15.30;99.90;;;;;;5018470;28;20037;-87
2023/08/04 03:24:42;;;;;;;7.47;1.92;;;15.30;99.90;;;;;;5034880;28;20048;-87
2023/08/04 03:27:08;;;;;;;9.40;2.00;;;15.30;99.90;;;;;;5018240;28;20789;-86
2023/08/04 03:29:35;;;;;;;11.50;2.13;;;15.30;99.90;;;;;;5033938;28;20485;-87
2023/08/04 03:32:02;;;;;;;7.32;1.80;;;15.30;99.90;;;;;;5018235;28;20179;-86
2023/08/04 03:34:29;;;;;;;6.13;2.00;;;15.30;99.90;;;;;;5034492;28;20474;-86
2023/08/04 03:36:56;;;;;;;5.63;1.80;;;15.30;99.90;;;;;;5018634;28;20072;-87
2023/08/04 03:39:23;;;;;;;7.53;1.70;;;15.30;99.90;;;;;;5017871;28;20060;-86
2023/08/04 03:41:49;;;;;;;4.57;1.70;;;15.30;99.90;;;;;;5017942;28;20042;-86
2023/08/04 03:44:16;;;;;;;7.30;1.80;;;15.20;99.90;;;;;;5017339;28;20055;-86
2023/08/04 03:46:43;;;;;;;7.75;1.75;;;15.20;99.90;;;;;;5017767;28;20049;-86
2023/08/04 03:49:09;;;;;;;6.25;1.67;;;15.20;99.90;;;;;;5017686;28;20584;-85
2023/08/04 03:51:36;;;;;;;4.93;1.65;;;15.10;99.90;;;;;;5017614;28;20046;-86
2023/08/04 03:54:03;;;;;;;10.55;2.03;;;15.10;99.90;;;;;;5018017;28;20041;-86
2023/08/04 03:56:29;;;;;;;7.05;1.63;;;15.10;99.90;;;;;;5066659;28;20053;-86
2023/08/04 03:58:56;;;;;;;5.50;1.40;;;15.10;99.90;;;;;;5017895;28;20045;-87
2023/08/04 04:01:23;;;;;;;5.32;1.70;;;15.10;99.90;;;;;;5017738;28;20037;-87
2023/08/04 04:03:50;;;;;;;5.88;1.60;;;15.10;99.90;;;;;;5034516;28;20049;-87
2023/08/04 04:06:16;;;;;;;4.75;1.60;;;15.10;99.90;;;;;;5033815;28;20041;-86
2023/08/04 04:08:45;;;;;;;6.35;1.75;;;15.10;99.90;;;;;;5017530;28;20047;-86
2023/08/04 04:11:12;;;;;;;6.05;1.70;;;15.10;99.90;;;;;;5017746;28;20041;-84
2023/08/04 04:13:40;;;;;;;8.57;1.90;;;15.10;99.90;;;;;;5017787;28;20053;-86
2023/08/04 04:16:07;;;;;;;5.32;1.60;;;15.10;99.90;;;;;;5017717;28;20502;-87
2023/08/04 04:18:33;;;;;;;5.30;1.90;;;15.10;99.90;;;;;;5033425;28;20048;-86
2023/08/04 04:21:00;;;;;;;5.40;1.83;;;15.00;99.90;;;;;;5017511;28;20397;-86
2023/08/04 04:23:28;;;;;;;4.22;1.65;;;15.00;99.90;;;;;;5017507;28;20103;-86
2023/08/04 04:25:54;;;;;;;4.47;1.65;;;15.00;99.90;;;;;;5017826;28;20076;-86
2023/08/04 04:28:21;;;;;;;8.95;2.03;;;15.00;99.90;;;;;;5017197;28;20820;-86
2023/08/04 04:30:49;;;;;;;3.67;1.63;;;15.00;99.90;;;;;;5017369;28;20038;-86
2023/08/04 04:33:16;;;;;;;3.10;1.48;;;15.00;99.90;;;;;;5017142;28;20037;-86
2023/08/04 04:35:49;;;;;;;5.25;1.60;;;15.00;99.90;;;;;;5017496;28;20041;-86
2023/08/04 04:38:16;;;;;;;5.45;2.10;;;15.10;99.90;;;;;;5017230;28;20045;-86
2023/08/04 04:40:43;;;;;;;4.78;1.52;;;15.10;99.90;;;;;;5019362;28;20124;-87
2023/08/04 04:43:09;;;;;;;3.33;1.40;;;15.10;99.90;;;;;;5021407;28;20041;-87
2023/08/04 04:45:36;;;;;;;5.38;1.40;;;15.20;99.90;;;;;;5021341;28;20699;-86
2023/08/04 04:48:03;;;;;;;7.38;1.90;;;15.20;99.90;;;;;;5021098;28;20048;-87
2023/08/04 04:50:29;;;;;;;4.40;1.60;;;15.20;99.90;;;;;;5020888;28;20085;-87
2023/08/04 04:52:56;;;;;;;4.70;1.52;;;15.20;99.90;;;;;;5020999;28;20042;-86
2023/08/04 04:55:23;;;;;;;4.55;1.80;;;15.30;99.90;;;;;;5021193;28;20129;-87
2023/08/04 04:57:49;;;;;;;4.75;1.67;;;15.30;99.90;;;;;;5020757;28;20046;-86
2023/08/04 05:00:16;;;;;;;4.25;1.90;;;15.30;99.90;;;;;;5021128;28;20037;-86
2023/08/04 05:02:43;;;;;;;4.30;1.50;;;15.30;99.90;;;;;;5037465;28;20137;-87
2023/08/04 05:05:10;;;;;;;3.60;1.50;;;15.30;99.90;;;;;;5021304;28;20045;-86
2023/08/04 05:07:36;;;;;;;4.30;1.30;;;15.30;99.90;;;;;;5020562;28;20080;-86
2023/08/04 05:10:04;;;;;;;6.15;1.70;;;15.30;99.90;;;;;;5021382;28;20398;-87
2023/08/04 05:12:30;;;;;;;4.13;1.40;;;15.30;99.90;;;;;;5020417;28;20088;-86
2023/08/04 05:14:57;;;;;;;3.15;1.63;;;15.30;99.90;;;;;;5020822;28;20057;-86
2023/08/04 05:17:24;;;;;;;4.93;1.88;;;15.30;99.90;;;;;;5037267;28;20072;-86
2023/08/04 05:19:50;;;;;;;2.45;1.23;;;15.30;99.90;;;;;;5020964;28;20049;-86
2023/08/04 05:22:17;;;;;;;3.40;1.42;;;15.20;99.90;;;;;;5020964;28;20041;-87
2023/08/04 05:24:44;;;;;;;2.80;1.23;;;15.20;99.90;;;;;;5020079;28;20041;-86
2023/08/04 05:27:10;;;;;;;3.28;1.20;;;15.20;99.90;;;;;;5020407;28;20079;-86
2023/08/04 05:29:37;;;;;;;3.90;1.20;;;15.20;99.90;;;;;;5020206;28;20048;-86
2023/08/04 05:32:04;;;;;;;3.28;1.63;;;15.20;99.90;;;;;;5036426;28;20041;-86
2023/08/04 05:34:31;;;;;;;2.63;1.23;;;15.20;99.90;;;;;;5020368;28;20378;-86
2023/08/04 05:36:57;;;;;;;3.05;1.30;;;15.20;99.90;;;;;;5020563;28;20122;-86
2023/08/04 05:39:24;;;;;;;5.15;1.35;;;15.20;99.90;;;;;;5020296;28;20041;-86
2023/08/04 05:41:51;;;;;;;2.55;1.30;;;15.20;99.90;;;;;;5020520;28;20052;-86
2023/08/04 05:44:18;;;;;;;2.97;1.20;;;15.20;99.90;;;;;;5020382;28;20132;-86
2023/08/04 05:46:44;;;;;;;3.60;1.20;;;15.30;99.90;;;;;;5019951;28;20517;-86
2023/08/04 05:49:11;;;;;;;3.20;1.35;;;15.30;99.90;;;;;;5020188;28;20497;-86
2023/08/04 05:51:38;;;;;;;2.67;1.20;;;15.40;99.90;;;;;;5019661;28;20135;-86
2023/08/04 05:54:04;;;;;;;2.55;1.25;;;15.40;99.90;;;;;;5020322;28;20045;-86
2023/08/04 05:56:31;;;;;;;4.25;1.58;;;15.40;99.90;;;;;;5019555;28;20046;-86
2023/08/04 05:58:58;;;;;;;2.55;1.23;;;15.50;99.90;;;;;;5019740;28;20560;-86
2023/08/04 06:01:27;;;;;;;3.40;1.35;;;15.50;99.90;;;;;;5036417;28;20469;-86
2023/08/04 06:03:54;;;;;;;2.60;1.30;;;15.60;99.90;;;;;;5036083;28;20474;-86
2023/08/04 06:06:21;;;;;;;2.70;1.20;;;15.50;99.90;;;;;;5020095;28;20124;-86
2023/08/04 06:08:48;;;;;;;3.15;1.30;;;15.50;99.90;;;;;;5019685;28;20450;-87
2023/08/04 06:11:14;;;;;;;6.13;1.48;;;15.60;99.90;;;;;;5035832;28;20137;-86
2023/08/04 06:13:41;;;;;;;3.35;1.10;;;15.70;99.90;;;;;;5019426;28;20103;-87
2023/08/04 06:16:08;;;;;;;4.25;1.30;;;15.70;99.90;;;;;;5019483;28;20494;-86
2023/08/04 06:18:35;;;;;;;2.30;1.20;;;15.70;99.90;;;;;;5035540;28;20045;-86
2023/08/04 06:21:01;;;;;;;2.90;1.20;;;15.80;99.90;;;;;;5019308;28;20083;-86
2023/08/04 06:23:28;;;;;;;3.47;1.63;;;15.80;99.90;;;;;;5019516;28;20573;-87
2023/08/04 06:25:55;;;;;;;2.20;1.27;;;15.90;99.90;;;;;;5019505;28;20048;-86
2023/08/04 06:28:22;;;;;;;2.83;1.13;;;15.90;99.90;;;;;;5019515;28;20042;-86
2023/08/04 06:30:49;;;;;;;3.35;1.50;;;16.00;99.90;;;;;;5018907;28;20049;-86
2023/08/04 06:33:15;;;;;;;2.63;1.23;;;16.00;99.90;;;;;;5035679;28;20038;-87
2023/08/04 06:35:44;;;;;;;2.92;1.40;;;16.10;99.90;;;;;;5019249;28;20171;-86
2023/08/04 06:38:10;;;;;;;5.63;1.38;;;16.10;99.90;;;;;;5022687;28;20094;-86
2023/08/04 06:40:38;;;;;;;3.78;1.52;;;16.20;99.90;;;;;;5018914;28;20549;-86
2023/08/04 06:43:04;;;;;;;3.08;1.60;;;16.20;99.90;;;;;;5019151;28;20138;-86
2023/08/04 06:45:31;;;;;;;3.90;1.70;;;16.30;99.90;;;;;;5019136;28;20486;-86
2023/08/04 06:47:58;;;;;;;4.20;1.60;;;16.30;99.90;;;;;;5035569;28;20128;-86
2023/08/04 06:50:24;;;;;;;4.32;1.65;;;16.40;99.90;;;;;;5018920;28;20135;-86
2023/08/04 06:52:51;;;;;;;4.55;1.58;;;16.40;99.90;;;;;;5018739;28;20045;-86
2023/08/04 06:55:18;;;;;;;5.03;1.80;;;16.40;99.90;;;;;;5018966;28;20049;-86
2023/08/04 06:57:44;;;;;;;6.90;1.73;;;16.50;99.90;;;;;;5018560;28;20406;-86
2023/08/04 07:00:12;;;;;;;8.25;2.03;;;16.50;99.90;;;;;;5018882;28;20037;-86
2023/08/04 07:02:40;;;;;;;9.65;2.40;;;16.60;99.90;;;;;;5034128;28;20501;-86
2023/08/04 07:05:10;;;;;;;9.48;2.42;;;16.70;99.90;;;;;;5019038;28;20132;-86
2023/08/04 07:07:36;;;;;;;6.18;1.90;;;16.70;99.90;;;;;;5019012;28;20049;-86
2023/08/04 07:10:03;;;;;;;7.32;1.98;;;16.80;99.90;;;;;;5034934;28;20061;-86
2023/08/04 07:12:30;;;;;;;6.70;1.80;;;16.70;99.90;;;;;;5018293;28;20045;-87
2023/08/04 07:14:57;;;;;;;3.65;1.52;;;16.70;99.90;;;;;;5018162;28;20053;-86
2023/08/04 07:17:24;;;;;;;7.75;1.83;;;16.80;99.90;;;;;;5034505;28;20132;-86
2023/08/04 07:19:51;;;;;;;4.22;1.67;;;16.70;99.90;;;;;;5018081;28;20515;-86
2023/08/04 07:22:17;;;;;;;8.77;1.90;;;16.80;99.90;;;;;;5034521;28;20052;-86
2023/08/04 07:24:46;;;;;;;5.32;1.67;;;16.80;99.90;;;;;;5018330;28;20037;-86
2023/08/04 07:27:13;;;;;;;5.57;1.70;;;16.90;99.90;;;;;;5018847;28;20048;-87
2023/08/04 07:29:40;;;;;;;3.38;1.40;;;16.90;99.90;;;;;;5017803;28;20037;-86
2023/08/04 07:32:07;;;;;;;3.75;1.45;;;17.00;99.90;;;;;;5018150;28;20045;-86
2023/08/04 07:34:33;;;;;;;6.43;1.50;;;17.00;99.90;;;;;;5018529;28;20041;-87
2023/08/04 07:37:00;;;;;;;3.55;1.48;;;17.00;99.90;;;;;;5034066;28;20033;-87
2023/08/04 07:39:30;;;;;;;2.70;1.30;;;17.10;99.90;;;;;;5018412;28;20441;-86
2023/08/04 07:41:58;;;;;;;3.38;1.63;;;17.10;99.90;;;;;;5018037;28;20045;-87
2023/08/04 07:44:25;;;;;;;4.00;1.70;;;17.10;99.90;;;;;;5018464;28;20402;-87
2023/08/04 07:46:52;;;;;;;3.10;1.55;;;17.10;99.90;;;;;;5050964;28;20061;-87
2023/08/04 07:49:18;;;;;;;5.40;1.70;;;17.20;99.90;;;;;;5018370;28;20045;-87
2023/08/04 07:51:45;;;;;;;4.15;1.50;;;17.30;99.90;;;;;;5018047;28;20041;-87
2023/08/04 07:54:12;;;;;;;2.67;1.33;;;17.40;99.90;;;;;;5034967;28;20037;-87
2023/08/04 07:56:38;;;;;;;3.30;1.50;;;17.40;99.90;;;;;;5034686;28;20034;-87
2023/08/04 07:59:05;;;;;;;6.18;1.88;;;17.50;99.90;;;;;;5018147;28;20041;-87
2023/08/04 08:01:32;;;;;;;4.75;1.40;;;17.50;99.90;;;;;;5017786;28;20039;-86
2023/08/04 08:03:58;;;;;;;4.95;1.80;;;17.60;99.90;;;;;;5017839;28;20049;-86
2023/08/04 08:06:25;;;;;;;4.13;1.60;;;17.70;99.90;;;;;;5017823;28;20132;-86
2023/08/04 08:08:52;;;;;;;4.95;1.48;;;17.60;99.90;;;;;;5017973;28;20041;-86
2023/08/04 08:11:18;;;;;;;8.60;1.75;;;17.80;99.90;;;;;;5018085;28;20041;-86
2023/08/04 08:13:45;;;;;;;6.00;1.70;;;17.90;99.90;;;;;;5017510;28;20041;-86
2023/08/04 08:16:17;;;;;;;4.45;1.48;;;17.80;99.90;;;;;;5017908;28;20124;-87
2023/08/04 08:18:44;;;;;;;5.90;1.50;;;18.00;99.90;;;;;;5050334;28;20076;-87
2023/08/04 08:21:11;;;;;;;8.30;1.80;;;18.10;99.90;;;;;;5018129;28;20045;-87
2023/08/04 08:23:37;;;;;;;4.57;1.63;;;18.10;99.90;;;;;;5017869;28;20041;-87
2023/08/04 08:26:05;;;;;;;4.35;1.60;;;18.20;99.90;;;;;;5017278;28;20090;-87
2023/08/04 08:28:32;;;;;;;3.63;1.58;;;18.10;99.90;;;;;;5034030;28;20378;-87
2023/08/04 08:30:58;;;;;;;4.57;1.58;;;18.20;99.90;;;;;;5017015;28;20056;-86
2023/08/04 08:33:26;;;;;;;4.53;1.83;;;18.20;99.90;;;;;;5017290;28;20512;-86
2023/08/04 08:35:53;;;;;;;6.00;1.70;;;18.30;99.90;;;;;;5017475;28;20513;-87
2023/08/04 08:38:20;;;;;;;4.47;1.92;;;18.30;99.90;;;;;;5050227;28;20409;-87
2023/08/04 08:40:48;;;;;;;9.27;1.90;;;18.60;99.90;;;;;;5017692;28;20041;-86
2023/08/04 08:43:15;;;;;;;6.32;1.70;;;18.70;99.90;;;;;;5033937;28;20076;-86
2023/08/04 08:45:43;;;;;;;5.70;1.50;;;18.60;99.90;;;;;;5017849;28;20506;-86
2023/08/04 08:48:11;;;;;;;4.00;1.33;;;18.60;99.90;;;;;;5017791;28;20049;-87
2023/08/04 08:50:39;;;;;;;5.35;1.42;;;18.50;99.90;;;;;;5017480;28;20517;-87
2023/08/04 08:53:06;;;;;;;4.70;1.77;;;18.40;99.90;;;;;;5017777;28;20048;-87
2023/08/04 08:55:34;;;;;;;5.43;1.30;;;18.30;99.90;;;;;;5050403;28;20037;-86
2023/08/04 08:58:02;;;;;;;5.22;1.40;;;18.20;99.90;;;;;;5049273;28;20497;-86
2023/08/04 09:00:29;;;;;;;4.60;1.38;;;18.20;99.90;;;;;;5033604;28;20033;-86
2023/08/04 09:02:57;;;;;;;4.50;1.20;;;18.10;99.90;;;;;;5017713;28;20076;-87
2023/08/04 09:05:23;;;;;;;4.22;1.17;;;18.10;99.90;;;;;;5033077;28;20390;-87
2023/08/04 09:07:50;;;;;;;4.28;1.10;;;18.10;99.90;;;;;;5016761;28;20041;-85
2023/08/04 09:10:17;;;;;;;5.90;1.20;;;18.20;99.90;;;;;;5017285;28;20045;-86
2023/08/04 09:12:48;;;;;;;5.65;1.33;;;18.10;99.90;;;;;;5016860;28;20051;-87
2023/08/04 09:15:15;;;;;;;7.20;1.08;;;18.20;99.90;;;;;;5016897;28;20091;-86
2023/08/04 09:17:42;;;;;;;5.13;1.42;;;18.20;99.90;;;;;;5017278;28;20077;-87
2023/08/04 09:20:26;;;;;;;3.50;1.17;;;18.30;99.90;;;;;;5034486;28;20049;-83
2023/08/04 09:22:53;;;;;;;2.60;1.02;;;18.20;99.90;;;;;;5048362;28;20049;-83
2023/08/04 09:25:20;;;;;;;3.90;1.13;;;18.30;99.90;;;;;;5016906;28;20421;-83
2023/08/04 09:27:50;;;;;;;3.97;1.30;;;18.30;99.90;;;;;;5035829;28;20046;-83
2023/08/04 09:30:18;;;;;;;4.15;1.00;;;18.50;99.90;;;;;;5019954;28;20114;-83
2023/08/04 09:32:46;;;;;;;2.63;1.13;;;18.70;99.90;;;;;;5019752;28;20095;-83
2023/08/04 09:35:14;;;;;;;4.55;1.20;;;18.70;99.90;;;;;;5019520;28;20041;-83
2023/08/04 09:37:41;;;;;;;3.67;1.15;;;18.50;99.90;;;;;;5020115;28;20041;-83
2023/08/04 09:40:19;;;;;;;2.78;0.98;;;18.30;99.90;;;;;;5019609;28;20406;-83
2023/08/04 09:42:47;;;;;;;4.03;1.00;;;18.30;99.90;;;;;;5052238;28;20041;-83
2023/08/04 09:45:18;;;;;;;3.05;0.90;;;18.20;99.90;;;;;;5035586;28;20099;-84
2023/08/04 09:47:49;;;;;;;3.75;1.20;;;18.30;99.90;;;;;;5019831;28;20052;-83
2023/08/04 09:50:19;;;;;;;3.65;1.10;;;18.30;99.90;;;;;;5019238;28;20041;-84
2023/08/04 09:52:46;;;;;;;5.80;1.80;;;18.30;99.90;;;;;;5035608;28;20050;-84
2023/08/04 09:55:13;;;;;;;3.97;1.40;;;18.40;99.90;;;;;;5035191;28;20037;-84
2023/08/04 09:57:41;;;;;;;5.38;1.55;;;18.40;99.90;;;;;;5052080;28;20040;-84
2023/08/04 10:00:11;;;;;;;4.22;1.40;;;18.70;99.90;;;;;;5019228;28;20060;-83
2023/08/04 10:02:38;;;;;;;7.15;1.40;;;18.80;99.90;;;;;;5051809;28;20382;-84
2023/08/04 10:05:06;;;;;;;4.68;1.60;;;18.90;99.90;;;;;;5035224;28;20047;-84
2023/08/04 10:07:33;;;;;;;4.50;1.33;;;19.00;99.90;;;;;;5018873;28;20041;-84
2023/08/04 10:10:00;;;;;;;4.43;1.50;;;19.20;99.90;;;;;;5035062;28;20052;-84
2023/08/04 10:12:29;;;;;;;4.40;1.45;;;19.20;99.90;;;;;;5034784;28;20049;-83
2023/08/04 10:14:56;;;;;;;6.45;1.23;;;19.50;99.90;;;;;;5051408;28;20046;-83
2023/08/04 10:17:26;;;;;;;5.10;1.40;;;19.80;99.90;;;;;;5051281;28;20124;-84
2023/08/04 10:20:09;;;;;;;5.55;1.60;;;20.10;99.90;;;;;;5051689;28;20036;-83
2023/08/04 10:22:45;;;;;;;3.58;1.30;;;20.00;99.90;;;;;;5051436;28;20493;-83
2023/08/04 10:25:13;;;;;;;7.07;1.63;;;19.80;99.90;;;;;;5051222;28;20413;-83
2023/08/04 10:27:48;;;;;;;6.10;1.38;;;19.70;99.90;;;;;;5051488;28;20056;-83
2023/08/04 10:30:15;;;;;;;6.10;1.40;;;19.60;99.90;;;;;;5050936;28;20095;-83
2023/08/04 10:32:42;;;;;;;4.22;1.48;;;19.60;99.90;;;;;;5051259;28;20072;-84
2023/08/04 10:35:19;;;;;;;6.22;1.67;;;19.60;99.90;;;;;;5050825;28;20037;-83
2023/08/04 10:37:53;;;;;;;3.83;1.38;;;19.70;99.90;;;;;;5050287;28;20038;-84
2023/08/04 10:40:30;;;;;;;7.85;1.42;;;19.40;99.90;;;;;;5034387;28;20045;-83
2023/08/04 10:43:04;;;;;;;4.93;1.60;;;19.40;99.90;;;;;;5051282;28;20041;-84
2023/08/04 10:45:50;;;;;;;6.00;1.70;;;19.40;99.90;;;;;;5051165;28;20045;-84
2023/08/04 10:48:19;;;;;;;6.25;1.60;;;19.40;99.90;;;;;;5050483;28;20038;-84
2023/08/04 10:50:46;;;;;;;5.13;1.40;;;19.70;99.90;;;;;;5051121;28;20077;-84
2023/08/04 10:53:14;;;;;;;5.22;1.45;;;19.90;99.90;;;;;;5050366;28;20037;-83
2023/08/04 10:55:55;;;;;;;5.00;1.42;;;20.20;99.90;;;;;;5050512;28;20513;-84
2023/08/04 10:58:26;;;;;;;4.35;1.08;;;20.60;99.90;;;;;;5050521;28;20110;-83
2023/08/04 11:00:55;;;;;;;2.50;1.17;;;21.10;99.90;;;;;;5034695;28;20041;-84
2023/08/04 11:03:25;;;;;;;3.50;1.02;;;21.10;99.90;;;;;;5050205;28;20520;-85
2023/08/04 11:05:53;;;;;;;3.83;1.20;;;20.90;99.90;;;;;;5050549;28;20444;-84
2023/08/04 11:08:21;;;;;;;5.55;1.20;;;20.80;99.90;;;;;;5049955;28;20084;-84
2023/08/04 11:10:56;;;;;;;5.10;1.90;;;20.50;99.90;;;;;;5034246;28;20044;-84
2023/08/04 11:13:25;;;;;;;2.78;1.10;;;20.50;99.90;;;;;;5050030;28;20398;-84
2023/08/04 11:15:55;;;;;;;3.78;1.08;;;20.60;99.90;;;;;;5060323;28;20141;-83
2023/08/04 11:18:25;;;;;;;3.53;1.05;;;20.80;99.90;;;;;;5049938;28;20379;-84
2023/08/04 11:20:53;;;;;;;3.15;1.10;;;20.90;99.90;;;;;;5066889;28;20038;-84
2023/08/04 11:23:26;;;;;;;4.15;1.30;;;20.80;99.90;;;;;;5049903;28;20053;-84
2023/08/04 11:25:53;;;;;;;3.05;1.20;;;20.60;99.90;;;;;;5066631;28;20094;-84
2023/08/04 11:28:24;;;;;;;4.40;1.23;;;20.50;99.90;;;;;;5049834;28;20505;-84
2023/08/04 11:30:52;;;;;;;3.80;1.10;;;20.50;99.90;;;;;;5049911;28;20049;-84
2023/08/04 11:33:19;;;;;;;5.90;1.20;;;20.50;99.90;;;;;;5033818;28;20179;-84
2023/08/04 11:35:48;;;;;;;4.80;1.10;;;20.70;99.90;;;;;;5049985;28;20120;-84
2023/08/04 11:38:15;;;;;;;3.78;1.00;;;20.90;99.90;;;;;;5033221;28;20140;-84
2023/08/04 11:40:59;;;;;;;2.15;1.00;;;20.90;99.90;;;;;;5017628;28;20124;-83
2023/08/04 11:43:26;;;;;;;2.53;0.90;;;21.00;99.90;;;;;;5032755;28;20041;-84
2023/08/04 11:45:56;;;;;;;2.67;0.80;;;20.90;99.90;;;;;;5050038;28;20079;-84
2023/08/04 11:48:23;;;;;;;4.45;0.90;;;20.80;99.90;;;;;;5049764;28;20087;-85
2023/08/04 11:50:54;;;;;;;2.55;0.95;;;20.80;99.90;;;;;;5033542;28;20084;-84
2023/08/04 11:53:21;;;;;;;3.28;0.95;;;20.90;99.90;;;;;;5049422;28;20049;-83
2023/08/04 11:55:56;;;;;;;2.92;1.02;;;21.10;99.90;;;;;;5033272;28;20037;-84
2023/08/04 11:58:36;;;;;;;5.30;0.93;;;21.20;99.90;;;;;;5032987;28;20041;-84
2023/08/04 12:01:04;;;;;;;6.70;1.15;;;21.20;99.90;;;;;;5033658;28;20041;-84
2023/08/04 12:03:48;;;;;;;3.08;1.00;;;21.00;99.90;;;;;;5016825;28;20497;-84
2023/08/04 12:06:18;;;;;;;2.80;1.00;;;21.10;99.90;;;;;;5049388;28;20045;-84
2023/08/04 12:08:54;;;;;;;4.30;0.93;;;21.00;99.90;;;;;;5049859;28;20037;-84
2023/08/04 12:11:27;;;;;;;2.17;0.93;;;20.80;99.90;;;;;;5049491;28;20451;-84
2023/08/04 12:14:12;;;;;;;4.03;1.23;;;20.90;99.90;;;;;;5049379;28;20044;-84
2023/08/04 12:16:59;;;;;;;3.20;0.90;;;20.80;99.90;;;;;;5049218;28;20453;-84
2023/08/04 12:19:30;;;;;;;2.90;1.05;;;20.80;99.90;;;;;;5065407;28;20060;-84
2023/08/04 12:22:00;;;;;;;2.70;0.80;;;20.60;99.90;;;;;;5049413;28;20037;-84
2023/08/04 12:24:31;;;;;;;2.45;0.80;;;20.80;99.90;;;;;;5065627;28;20560;-84
2023/08/04 12:26:57;;;;;;;4.65;1.10;;;21.10;99.90;;;;;;5049615;28;20041;-84
2023/08/04 12:29:24;;;;;;;2.35;0.70;;;21.20;99.90;;;;;;5032967;28;20044;-84
2023/08/04 12:31:51;;;;;;;3.70;1.17;;;21.10;99.90;;;;;;5033300;28;20046;-84
2023/08/04 12:34:18;;;;;;;3.40;0.70;;;21.20;99.90;;;;;;5049102;28;20108;-84
2023/08/04 12:36:44;;;;;;;3.53;1.00;;;21.20;99.90;;;;;;5032831;28;20092;-84
2023/08/04 12:39:14;;;;;;;5.18;0.90;;;21.30;99.90;;;;;;5033335;28;20094;-84
2023/08/04 12:41:41;;;;;;;3.65;0.88;;;21.20;99.90;;;;;;5032614;28;20129;-84
2023/08/04 12:44:09;;;;;;;2.42;1.00;;;21.10;99.90;;;;;;5049138;28;20054;-84
2023/08/04 12:46:36;;;;;;;3.63;1.30;;;21.10;99.90;;;;;;5048782;28;20041;-84
2023/08/04 12:49:03;;;;;;;3.08;1.10;;;21.20;99.90;;;;;;5049112;28;20519;-85